createdAt,value
2018-04-08T00:00:14.853Z,9.25
2018-04-08T00:01:15.258Z,9.21
2018-04-08T00:02:15.187Z,9.22
2018-04-08T00:03:15.350Z,9.21
2018-04-08T00:04:15.546Z,9.21
2018-04-08T00:05:15.704Z,9.11
2018-04-08T00:06:15.866Z,9.18
2018-04-08T00:07:16.038Z,9.11
2018-04-08T00:08:16.209Z,9.03
2018-04-08T00:09:16.387Z,9.13
2018-04-08T00:10:16.560Z,9.14
2018-04-08T00:11:16.732Z,9.08
2018-04-08T00:12:16.912Z,8.91
2018-04-08T00:13:17.076Z,9.02
2018-04-08T00:15:17.434Z,9.00
2018-04-08T00:16:17.576Z,8.89
2018-04-08T00:17:17.775Z,8.79
2018-04-08T00:18:17.943Z,8.69
2018-04-08T00:19:18.100Z,8.71
2018-04-08T00:20:18.264Z,8.74
2018-04-08T00:21:18.438Z,8.67
2018-04-08T00:22:18.610Z,8.73
2018-04-08T00:23:18.796Z,8.64
2018-04-08T00:24:19.277Z,8.70
2018-04-08T00:25:19.130Z,8.61
2018-04-08T00:26:19.283Z,8.46
2018-04-08T00:27:19.480Z,8.49
2018-04-08T00:28:19.653Z,8.34
2018-04-08T00:29:19.819Z,8.28
2018-04-08T00:30:19.983Z,8.19
2018-04-08T00:31:20.149Z,8.28
2018-04-08T00:32:20.334Z,8.42
2018-04-08T00:33:20.495Z,8.45
2018-04-08T00:34:20.703Z,8.58
2018-04-08T00:35:20.880Z,8.61
2018-04-08T00:36:21.030Z,8.69
2018-04-08T00:37:21.193Z,8.58
2018-04-08T00:38:21.382Z,8.71
2018-04-08T00:39:21.544Z,8.61
2018-04-08T00:40:21.717Z,8.69
2018-04-08T00:41:21.894Z,8.76
2018-04-08T00:42:22.033Z,8.73
2018-04-08T00:43:22.196Z,8.78
2018-04-08T00:44:22.362Z,8.76
2018-04-08T00:45:22.528Z,8.64
2018-04-08T00:46:22.705Z,8.56
2018-04-08T00:47:22.869Z,8.48
2018-04-08T00:48:23.026Z,8.56
2018-04-08T00:49:23.189Z,8.48
2018-04-08T00:51:23.537Z,8.49
2018-04-08T00:52:23.712Z,8.44
2018-04-08T00:53:23.868Z,8.46
2018-04-08T00:54:24.028Z,8.44
2018-04-08T00:55:24.201Z,8.44
2018-04-08T00:56:24.369Z,8.46
2018-04-08T00:57:24.539Z,8.33
2018-04-08T00:58:24.714Z,8.28
2018-04-08T00:59:24.892Z,8.33
2018-04-08T01:00:25.070Z,8.44
2018-04-08T01:01:25.230Z,8.45
2018-04-08T01:02:25.401Z,8.41
2018-04-08T01:03:25.570Z,8.30
2018-04-08T01:04:25.758Z,8.37
2018-04-08T01:05:25.889Z,8.41
2018-04-08T01:06:26.079Z,8.30
2018-04-08T01:07:26.222Z,8.52
2018-04-08T01:08:26.385Z,8.28
2018-04-08T01:09:26.575Z,8.38
2018-04-08T01:10:26.768Z,8.38
2018-04-08T01:11:26.927Z,8.33
2018-04-08T01:12:27.067Z,8.41
2018-04-08T01:13:27.231Z,8.19
2018-04-08T01:14:27.397Z,8.06
2018-04-08T01:15:27.569Z,8.05
2018-04-08T01:16:27.752Z,8.06
2018-04-08T01:17:27.927Z,8.19
2018-04-08T01:18:28.104Z,8.15
2018-04-08T01:19:28.268Z,8.13
2018-04-08T01:20:28.429Z,8.26
2018-04-08T01:21:28.599Z,8.28
2018-04-08T01:22:28.743Z,8.23
2018-04-08T01:23:28.904Z,8.12
2018-04-08T01:24:29.072Z,8.27
2018-04-08T01:25:29.254Z,8.23
2018-04-08T01:26:29.418Z,8.31
2018-04-08T01:27:29.590Z,8.33
2018-04-08T01:28:29.767Z,8.27
2018-04-08T01:29:29.936Z,8.33
2018-04-08T01:30:30.116Z,8.28
2018-04-08T01:31:30.284Z,8.31
2018-04-08T01:32:30.510Z,8.28
2018-04-08T01:33:30.621Z,8.30
2018-04-08T01:34:30.805Z,8.30
2018-04-08T01:35:31.000Z,8.24
2018-04-08T01:36:31.153Z,8.23
2018-04-08T01:37:31.328Z,8.34
2018-04-08T01:38:31.501Z,8.30
2018-04-08T01:39:31.690Z,8.34
2018-04-08T01:40:31.893Z,8.28
2018-04-08T01:41:32.066Z,8.27
2018-04-08T01:42:32.237Z,8.12
2018-04-08T01:43:32.413Z,8.05
2018-04-08T01:44:32.609Z,7.98
2018-04-08T01:45:32.742Z,7.90
2018-04-08T01:46:32.906Z,7.93
2018-04-08T01:47:33.096Z,7.94
2018-04-08T01:48:33.268Z,7.94
2018-04-08T01:49:33.451Z,7.93
2018-04-08T01:50:33.641Z,8.05
2018-04-08T01:51:33.795Z,8.01
2018-04-08T01:52:33.970Z,7.97
2018-04-08T01:53:34.140Z,7.94
2018-04-08T01:54:34.332Z,8.05
2018-04-08T01:55:34.521Z,7.97
2018-04-08T01:56:34.664Z,8.01
2018-04-08T01:57:34.828Z,7.97
2018-04-08T01:58:34.995Z,8.03
2018-04-08T01:59:35.184Z,8.00
2018-04-08T02:00:35.347Z,7.98
2018-04-08T02:01:35.508Z,7.72
2018-04-08T02:02:35.664Z,7.77
2018-04-08T02:03:35.836Z,7.60
2018-04-08T02:04:36.001Z,7.61
2018-04-08T02:05:36.171Z,7.53
2018-04-08T02:06:36.342Z,7.47
2018-04-08T02:07:36.531Z,7.42
2018-04-08T02:08:36.687Z,7.53
2018-04-08T02:09:36.847Z,7.61
2018-04-08T02:10:37.020Z,7.51
2018-04-08T02:11:37.194Z,7.67
2018-04-08T02:12:37.603Z,7.67
2018-04-08T02:13:37.505Z,7.70
2018-04-08T02:14:37.676Z,7.70
2018-04-08T02:15:37.827Z,7.70
2018-04-08T02:16:38.005Z,7.73
2018-04-08T02:17:38.171Z,7.79
2018-04-08T02:18:38.336Z,7.76
2018-04-08T02:19:38.513Z,7.90
2018-04-08T02:20:38.691Z,7.91
2018-04-08T02:21:38.854Z,7.83
2018-04-08T02:22:39.029Z,7.70
2018-04-08T02:23:39.204Z,7.67
2018-04-08T02:24:39.363Z,7.63
2018-04-08T02:25:39.774Z,7.61
2018-04-08T02:26:39.685Z,7.57
2018-04-08T02:27:39.849Z,7.48
2018-04-08T02:28:40.037Z,7.57
2018-04-08T02:29:40.173Z,7.48
2018-04-08T02:30:40.346Z,7.35
2018-04-08T02:31:40.506Z,7.23
2018-04-08T02:32:40.686Z,7.28
2018-04-08T02:33:40.845Z,7.20
2018-04-08T02:34:41.003Z,7.17
2018-04-08T02:35:41.169Z,7.29
2018-04-08T02:36:41.338Z,7.07
2018-04-08T02:37:41.520Z,7.29
2018-04-08T02:38:41.668Z,7.20
2018-04-08T02:39:41.859Z,7.20
2018-04-08T02:40:42.004Z,7.25
2018-04-08T02:41:42.178Z,7.24
2018-04-08T02:42:42.363Z,7.32
2018-04-08T02:43:42.532Z,7.29
2018-04-08T02:44:42.694Z,7.23
2018-04-08T02:45:42.873Z,7.28
2018-04-08T02:46:43.029Z,7.20
2018-04-08T02:47:43.205Z,7.23
2018-04-08T02:48:43.382Z,7.18
2018-04-08T02:49:43.560Z,7.24
2018-04-08T02:50:43.707Z,7.13
2018-04-08T02:51:43.862Z,7.11
2018-04-08T02:52:44.045Z,7.07
2018-04-08T02:53:44.217Z,7.05
2018-04-08T02:54:44.391Z,7.10
2018-04-08T02:55:44.560Z,7.05
2018-04-08T02:56:44.733Z,7.03
2018-04-08T02:57:44.888Z,7.00
2018-04-08T02:58:45.064Z,7.02
2018-04-08T02:59:45.234Z,7.06
2018-04-08T03:00:45.391Z,7.06
2018-04-08T03:01:45.566Z,7.07
2018-04-08T03:02:45.742Z,7.13
2018-04-08T03:03:45.928Z,7.11
2018-04-08T03:04:46.091Z,7.07
2018-04-08T03:05:46.277Z,7.18
2018-04-08T03:06:46.448Z,7.07
2018-04-08T03:07:46.627Z,7.14
2018-04-08T03:08:46.802Z,7.10
2018-04-08T03:09:46.979Z,7.10
2018-04-08T03:10:47.161Z,7.10
2018-04-08T03:11:47.335Z,7.20
2018-04-08T03:12:47.513Z,7.03
2018-04-08T03:13:47.687Z,7.00
2018-04-08T03:14:47.876Z,6.97
2018-04-08T03:15:48.042Z,6.93
2018-04-08T03:16:48.221Z,7.00
2018-04-08T03:17:48.399Z,7.10
2018-04-08T03:18:48.579Z,7.07
2018-04-08T03:19:48.754Z,7.05
2018-04-08T03:20:48.930Z,7.10
2018-04-08T03:21:49.107Z,7.05
2018-04-08T03:22:49.284Z,6.92
2018-04-08T03:23:49.462Z,6.84
2018-04-08T03:24:49.636Z,6.89
2018-04-08T03:25:49.812Z,6.97
2018-04-08T03:26:49.994Z,7.03
2018-04-08T03:27:50.168Z,6.99
2018-04-08T03:28:50.347Z,7.02
2018-04-08T03:29:50.524Z,6.99
2018-04-08T03:30:50.700Z,7.00
2018-04-08T03:31:50.878Z,6.89
2018-04-08T03:32:51.072Z,6.93
2018-04-08T03:33:51.242Z,6.88
2018-04-08T03:35:51.583Z,6.84
2018-04-08T03:36:51.756Z,6.84
2018-04-08T03:37:51.940Z,6.95
2018-04-08T03:38:52.109Z,6.87
2018-04-08T03:39:52.277Z,6.88
2018-04-08T03:40:52.452Z,6.92
2018-04-08T03:41:52.626Z,6.85
2018-04-08T03:42:52.802Z,6.87
2018-04-08T03:43:52.978Z,6.64
2018-04-08T03:45:53.328Z,6.39
2018-04-08T03:46:53.501Z,6.59
2018-04-08T03:47:53.669Z,6.60
2018-04-08T03:48:53.842Z,6.62
2018-04-08T03:49:54.026Z,6.60
2018-04-08T03:50:54.200Z,6.66
2018-04-08T03:51:54.378Z,6.63
2018-04-08T03:52:54.562Z,6.69
2018-04-08T03:53:54.737Z,6.75
2018-04-08T03:54:54.912Z,6.78
2018-04-08T03:55:55.084Z,6.82
2018-04-08T03:56:55.267Z,6.88
2018-04-08T03:57:55.482Z,6.87
2018-04-08T03:58:55.611Z,6.79
2018-04-08T03:59:55.782Z,6.63
2018-04-08T04:00:55.956Z,6.62
2018-04-08T04:01:56.156Z,6.70
2018-04-08T04:02:56.342Z,6.60
2018-04-08T04:03:56.465Z,6.77
2018-04-08T04:04:56.645Z,6.62
2018-04-08T04:05:56.815Z,6.63
2018-04-08T04:06:56.991Z,6.70
2018-04-08T04:07:57.164Z,6.57
2018-04-08T04:08:57.344Z,6.54
2018-04-08T04:09:57.509Z,6.51
2018-04-08T04:10:57.690Z,6.52
2018-04-08T04:11:57.867Z,6.59
2018-04-08T04:12:58.044Z,6.63
2018-04-08T04:13:58.230Z,6.60
2018-04-08T04:14:58.411Z,6.64
2018-04-08T04:15:58.570Z,6.52
2018-04-08T04:16:58.748Z,6.59
2018-04-08T04:17:58.937Z,6.48
2018-04-08T04:18:59.100Z,6.49
2018-04-08T04:19:59.277Z,6.57
2018-04-08T04:20:59.455Z,6.51
2018-04-08T04:21:59.614Z,6.48
2018-04-08T04:22:59.806Z,6.46
2018-04-08T04:23:59.986Z,6.56
2018-04-08T04:25:00.160Z,6.45
2018-04-08T04:26:00.338Z,6.51
2018-04-08T04:27:01.487Z,6.56
2018-04-08T04:28:00.661Z,6.44
2018-04-08T04:29:00.838Z,6.31
2018-04-08T04:30:01.013Z,6.33
2018-04-08T04:31:01.192Z,6.33
2018-04-08T04:32:01.367Z,6.27
2018-04-08T04:33:01.544Z,6.35
2018-04-08T04:34:01.723Z,6.38
2018-04-08T04:35:01.897Z,6.41
2018-04-08T04:36:02.077Z,6.44
2018-04-08T04:37:02.255Z,6.33
2018-04-08T04:38:02.432Z,6.46
2018-04-08T04:39:02.609Z,6.52
2018-04-08T04:40:02.784Z,6.52
2018-04-08T04:41:02.962Z,6.54
2018-04-08T04:42:03.141Z,6.60
2018-04-08T04:43:03.320Z,6.57
2018-04-08T04:44:03.482Z,6.57
2018-04-08T04:45:03.657Z,6.56
2018-04-08T04:46:03.835Z,6.57
2018-04-08T04:47:04.013Z,6.62
2018-04-08T04:48:04.187Z,6.63
2018-04-08T04:49:04.365Z,6.56
2018-04-08T04:50:04.540Z,6.62
2018-04-08T04:51:04.718Z,6.70
2018-04-08T04:52:04.880Z,6.69
2018-04-08T04:53:05.057Z,6.79
2018-04-08T04:54:05.231Z,6.89
2018-04-08T04:55:05.415Z,6.85
2018-04-08T04:56:05.589Z,6.88
2018-04-08T04:57:05.764Z,6.87
2018-04-08T04:58:05.947Z,6.85
2018-04-08T04:59:06.120Z,7.00
2018-04-08T05:00:06.297Z,7.05
2018-04-08T05:01:06.477Z,6.88
2018-04-08T05:02:06.649Z,6.97
2018-04-08T05:03:06.827Z,6.89
2018-04-08T05:04:07.003Z,6.89
2018-04-08T05:05:07.424Z,6.79
2018-04-08T05:06:07.365Z,6.84
2018-04-08T05:07:07.542Z,6.79
2018-04-08T05:08:07.719Z,6.78
2018-04-08T05:09:07.894Z,6.84
2018-04-08T05:10:08.071Z,6.85
2018-04-08T05:11:08.247Z,6.89
2018-04-08T05:12:08.426Z,7.02
2018-04-08T05:13:08.602Z,6.99
2018-04-08T05:14:08.781Z,6.97
2018-04-08T05:15:08.969Z,7.02
2018-04-08T05:16:09.128Z,7.10
2018-04-08T05:17:09.304Z,7.00
2018-04-08T05:18:09.483Z,7.05
2018-04-08T05:19:09.659Z,7.06
2018-04-08T05:20:09.834Z,6.97
2018-04-08T05:21:10.019Z,6.93
2018-04-08T05:22:10.203Z,6.97
2018-04-08T05:23:10.422Z,6.89
2018-04-08T05:24:10.562Z,6.97
2018-04-08T05:25:10.730Z,7.07
2018-04-08T05:26:10.907Z,7.07
2018-04-08T05:27:11.076Z,7.06
2018-04-08T05:28:11.264Z,7.06
2018-04-08T05:29:11.447Z,7.05
2018-04-08T05:30:11.622Z,7.17
2018-04-08T05:31:11.804Z,7.17
2018-04-08T05:32:11.980Z,7.24
2018-04-08T05:33:12.172Z,7.45
2018-04-08T05:34:12.340Z,7.36
2018-04-08T05:35:12.523Z,7.39
2018-04-08T05:36:12.698Z,7.45
2018-04-08T05:37:12.877Z,7.50
2018-04-08T05:38:13.053Z,7.47
2018-04-08T05:39:13.245Z,7.58
2018-04-08T05:40:13.410Z,7.61
2018-04-08T05:41:13.579Z,7.67
2018-04-08T05:42:13.758Z,7.77
2018-04-08T05:43:13.933Z,7.95
2018-04-08T05:44:14.110Z,8.10
2018-04-08T05:45:14.277Z,8.26
2018-04-08T05:46:14.466Z,8.31
2018-04-08T05:47:14.642Z,8.63
2018-04-08T05:48:14.816Z,8.89
2018-04-08T05:49:15.008Z,9.25
2018-04-08T05:50:15.173Z,9.59
2018-04-08T05:51:15.351Z,9.94
2018-04-08T05:52:15.533Z,9.94
2018-04-08T05:53:15.706Z,10.34
2018-04-08T05:54:15.884Z,10.57
2018-04-08T05:55:16.086Z,10.72
2018-04-08T05:56:16.242Z,10.92
2018-04-08T05:57:16.423Z,11.02
2018-04-08T05:58:16.600Z,10.96
2018-04-08T05:59:16.778Z,11.00
2018-04-08T06:00:16.964Z,11.23
2018-04-08T06:01:17.144Z,11.44
2018-04-08T06:02:17.330Z,11.23
2018-04-08T06:03:17.521Z,11.29
2018-04-08T06:04:17.694Z,11.52
2018-04-08T06:05:17.870Z,11.80
2018-04-08T06:06:18.056Z,11.83
2018-04-08T06:07:18.238Z,11.91
2018-04-08T06:08:18.417Z,11.95
2018-04-08T06:09:18.602Z,12.21
2018-04-08T06:10:18.775Z,12.35
2018-04-08T06:11:18.958Z,12.50
2018-04-08T06:12:19.147Z,12.29
2018-04-08T06:13:19.322Z,12.39
2018-04-08T06:14:19.504Z,12.36
2018-04-08T06:15:19.688Z,12.45
2018-04-08T06:16:19.863Z,12.64
2018-04-08T06:17:20.047Z,12.75
2018-04-08T06:18:20.225Z,12.76
2018-04-08T06:19:20.407Z,12.60
2018-04-08T06:20:20.605Z,12.54
2018-04-08T06:21:20.792Z,12.10
2018-04-08T06:22:20.961Z,12.45
2018-04-08T06:23:21.154Z,12.53
2018-04-08T06:24:21.323Z,12.80
2018-04-08T06:25:21.502Z,13.15
2018-04-08T06:26:21.683Z,13.23
2018-04-08T06:27:21.883Z,13.44
2018-04-08T06:28:22.054Z,13.71
2018-04-08T06:29:22.233Z,13.77
2018-04-08T06:30:22.668Z,14.07
2018-04-08T06:31:22.609Z,14.28
2018-04-08T06:32:22.798Z,13.97
2018-04-08T06:33:22.978Z,13.90
2018-04-08T06:34:23.171Z,14.05
2018-04-08T06:35:23.354Z,14.05
2018-04-08T06:36:23.539Z,14.20
2018-04-08T06:37:23.729Z,14.30
2018-04-08T06:38:23.911Z,14.35
2018-04-08T06:39:24.096Z,14.53
2018-04-08T06:40:24.281Z,14.68
2018-04-08T06:41:24.476Z,14.89
2018-04-08T06:42:24.646Z,15.02
2018-04-08T06:43:24.835Z,14.84
2018-04-08T06:44:25.009Z,14.60
2018-04-08T06:45:25.186Z,14.68
2018-04-08T06:46:25.382Z,14.70
2018-04-08T06:47:25.573Z,14.78
2018-04-08T06:48:25.761Z,15.11
2018-04-08T06:49:25.994Z,15.31
2018-04-08T06:50:26.132Z,15.54
2018-04-08T06:51:26.319Z,15.57
2018-04-08T06:52:26.506Z,15.77
2018-04-08T06:53:26.691Z,15.44
2018-04-08T06:54:26.876Z,15.46
2018-04-08T06:55:27.076Z,15.37
2018-04-08T06:56:27.258Z,15.06
2018-04-08T06:57:27.442Z,15.14
2018-04-08T06:58:27.624Z,15.27
2018-04-08T06:59:27.811Z,15.47
2018-04-08T07:00:27.998Z,15.37
2018-04-08T07:01:28.186Z,15.80
2018-04-08T07:02:28.374Z,16.12
2018-04-08T07:03:28.558Z,16.02
2018-04-08T07:05:28.923Z,16.47
2018-04-08T07:06:29.100Z,16.79
2018-04-08T07:07:29.290Z,16.83
2018-04-08T07:08:29.476Z,16.87
2018-04-08T07:09:29.699Z,16.99
2018-04-08T07:10:29.857Z,16.96
2018-04-08T07:11:30.045Z,16.89
2018-04-08T07:12:30.232Z,15.80
2018-04-08T07:13:30.421Z,15.75
2018-04-08T07:14:30.602Z,15.72
2018-04-08T07:15:30.797Z,15.73
2018-04-08T07:16:30.982Z,16.09
2018-04-08T07:17:31.178Z,15.61
2018-04-08T07:18:31.687Z,15.70
2018-04-08T07:19:31.548Z,16.15
2018-04-08T07:20:31.738Z,16.42
2018-04-08T07:21:31.929Z,16.53
2018-04-08T07:22:32.119Z,16.75
2018-04-08T07:23:32.292Z,16.65
2018-04-08T07:24:32.496Z,16.56
2018-04-08T07:25:32.669Z,15.73
2018-04-08T07:26:32.863Z,15.49
2018-04-08T07:27:33.056Z,15.02
2018-04-08T07:28:33.248Z,15.43
2018-04-08T07:29:33.424Z,16.16
2018-04-08T07:30:33.635Z,16.66
2018-04-08T07:31:33.786Z,16.71
2018-04-08T07:32:33.972Z,16.91
2018-04-08T07:33:34.163Z,16.68
2018-04-08T07:34:34.350Z,16.74
2018-04-08T07:35:34.543Z,17.26
2018-04-08T07:36:34.715Z,17.44
2018-04-08T07:37:34.897Z,17.63
2018-04-08T07:38:35.087Z,17.57
2018-04-08T07:39:35.262Z,17.78
2018-04-08T07:40:35.453Z,17.92
2018-04-08T07:41:35.636Z,17.95
2018-04-08T07:42:35.837Z,18.03
2018-04-08T07:43:36.006Z,18.28
2018-04-08T07:44:36.192Z,18.28
2018-04-08T07:45:36.395Z,18.34
2018-04-08T07:46:36.547Z,18.34
2018-04-08T07:47:36.730Z,18.28
2018-04-08T07:48:36.918Z,18.08
2018-04-08T07:49:37.348Z,17.89
2018-04-08T07:50:37.285Z,18.07
2018-04-08T07:51:37.477Z,18.34
2018-04-08T07:52:37.685Z,18.43
2018-04-08T07:53:37.844Z,18.70
2018-04-08T07:54:38.038Z,18.63
2018-04-08T07:55:38.228Z,18.43
2018-04-08T07:56:38.398Z,18.59
2018-04-08T07:57:38.603Z,18.88
2018-04-08T07:58:38.777Z,18.90
2018-04-08T07:59:38.955Z,19.15
2018-04-08T08:00:39.144Z,19.40
2018-04-08T08:01:39.327Z,19.39
2018-04-08T08:02:39.576Z,19.44
2018-04-08T08:03:39.690Z,19.41
2018-04-08T08:04:39.902Z,19.62
2018-04-08T08:05:40.018Z,19.40
2018-04-08T08:06:40.206Z,19.55
2018-04-08T08:07:40.410Z,19.69
2018-04-08T08:08:40.574Z,19.81
2018-04-08T08:09:40.764Z,18.92
2018-04-08T08:10:40.955Z,19.44
2018-04-08T08:11:41.136Z,19.66
2018-04-08T08:12:41.326Z,19.69
2018-04-08T08:13:41.525Z,19.69
2018-04-08T08:14:41.727Z,18.16
2018-04-08T08:15:41.895Z,18.38
2018-04-08T08:16:42.084Z,19.08
2018-04-08T08:17:42.273Z,19.62
2018-04-08T08:18:42.462Z,19.84
2018-04-08T08:19:42.649Z,19.92
2018-04-08T08:20:42.843Z,20.06
2018-04-08T08:21:43.023Z,20.09
2018-04-08T08:22:43.228Z,20.14
2018-04-08T08:23:44.073Z,20.06
2018-04-08T08:24:43.594Z,20.24
2018-04-08T08:25:43.744Z,19.94
2018-04-08T08:26:43.935Z,19.89
2018-04-08T08:27:44.125Z,20.02
2018-04-08T08:28:44.314Z,20.07
2018-04-08T08:29:44.500Z,19.91
2018-04-08T08:30:44.690Z,20.06
2018-04-08T08:31:44.883Z,20.24
2018-04-08T08:32:45.079Z,20.41
2018-04-08T08:33:45.241Z,20.93
2018-04-08T08:34:45.438Z,21.07
2018-04-08T08:35:45.625Z,20.63
2018-04-08T08:36:45.782Z,20.44
2018-04-08T08:37:45.993Z,20.65
2018-04-08T08:38:46.170Z,20.69
2018-04-08T08:39:46.360Z,20.97
2018-04-08T08:40:46.551Z,21.37
2018-04-08T08:41:46.769Z,21.67
2018-04-08T08:42:46.974Z,21.92
2018-04-08T08:43:47.147Z,21.96
2018-04-08T08:44:47.321Z,22.36
2018-04-08T08:45:47.517Z,22.65
2018-04-08T08:46:47.735Z,22.60
2018-04-08T08:47:47.869Z,22.69
2018-04-08T08:48:48.050Z,23.23
2018-04-08T08:49:48.220Z,22.91
2018-04-08T08:50:48.390Z,22.33
2018-04-08T08:51:48.852Z,22.66
2018-04-08T08:52:48.743Z,22.41
2018-04-08T08:53:48.916Z,22.17
2018-04-08T08:54:49.145Z,22.50
2018-04-08T08:55:49.271Z,21.96
2018-04-08T08:56:49.452Z,22.30
2018-04-08T08:57:49.636Z,22.44
2018-04-08T08:58:49.818Z,22.35
2018-04-08T08:59:49.997Z,21.96
2018-04-08T09:00:50.195Z,22.38
2018-04-08T09:01:50.351Z,22.63
2018-04-08T09:02:50.523Z,23.02
2018-04-08T09:03:50.721Z,22.41
2018-04-08T09:04:50.933Z,22.41
2018-04-08T09:05:51.067Z,22.54
2018-04-08T09:06:51.257Z,22.96
2018-04-08T09:07:51.424Z,22.47
2018-04-08T09:08:51.601Z,22.57
2018-04-08T09:09:51.791Z,21.82
2018-04-08T09:10:51.993Z,22.48
2018-04-08T09:11:52.150Z,22.68
2018-04-08T09:12:52.335Z,22.93
2018-04-08T09:13:52.526Z,22.91
2018-04-08T09:14:52.728Z,22.98
2018-04-08T09:15:52.897Z,23.43
2018-04-08T09:16:53.079Z,23.58
2018-04-08T09:17:53.300Z,23.76
2018-04-08T09:18:53.457Z,23.71
2018-04-08T09:19:53.617Z,23.84
2018-04-08T09:20:53.792Z,23.81
2018-04-08T09:21:53.974Z,23.96
2018-04-08T09:22:54.161Z,23.93
2018-04-08T09:23:54.334Z,23.99
2018-04-08T09:24:54.545Z,24.05
2018-04-08T09:25:54.686Z,24.18
2018-04-08T09:26:54.908Z,24.40
2018-04-08T09:27:55.064Z,24.20
2018-04-08T09:28:55.224Z,24.21
2018-04-08T09:29:55.401Z,24.18
2018-04-08T09:30:55.566Z,23.83
2018-04-08T09:31:55.789Z,23.41
2018-04-08T09:32:55.946Z,23.47
2018-04-08T09:33:56.124Z,23.66
2018-04-08T09:34:56.337Z,23.44
2018-04-08T09:35:56.474Z,23.78
2018-04-08T09:36:56.655Z,23.98
2018-04-08T09:37:56.830Z,24.32
2018-04-08T09:38:57.048Z,24.53
2018-04-08T09:39:57.208Z,24.48
2018-04-08T09:40:57.380Z,24.51
2018-04-08T09:41:57.564Z,24.89
2018-04-08T09:42:57.754Z,24.95
2018-04-08T09:43:57.935Z,25.14
2018-04-08T09:44:58.126Z,25.26
2018-04-08T09:45:58.345Z,25.17
2018-04-08T09:46:58.474Z,25.26
2018-04-08T09:47:58.658Z,25.43
2018-04-08T09:48:58.842Z,25.58
2018-04-08T09:49:59.019Z,25.53
2018-04-08T09:50:59.223Z,25.75
2018-04-08T09:51:59.397Z,25.69
2018-04-08T09:52:59.654Z,25.38
2018-04-08T09:53:59.894Z,25.68
2018-04-08T09:55:00.063Z,26.03
2018-04-08T09:56:00.218Z,26.10
2018-04-08T09:57:00.407Z,26.22
2018-04-08T09:58:00.597Z,26.56
2018-04-08T09:59:00.765Z,26.31
2018-04-08T10:00:00.966Z,26.00
2018-04-08T10:01:01.175Z,26.51
2018-04-08T10:02:01.376Z,26.59
2018-04-08T10:03:01.595Z,26.19
2018-04-08T10:04:01.718Z,26.47
2018-04-08T10:05:01.978Z,26.62
2018-04-08T10:06:02.133Z,26.51
2018-04-08T10:07:02.339Z,26.70
2018-04-08T10:08:02.519Z,26.15
2018-04-08T10:09:02.714Z,26.09
2018-04-08T10:10:02.894Z,26.29
2018-04-08T10:11:03.060Z,26.43
2018-04-08T10:12:03.262Z,26.26
2018-04-08T10:13:03.458Z,26.53
2018-04-08T10:14:03.652Z,26.81
2018-04-08T10:15:03.836Z,25.96
2018-04-08T10:16:04.004Z,25.25
2018-04-08T10:17:04.185Z,25.59
2018-04-08T10:18:04.408Z,25.96
2018-04-08T10:19:04.551Z,25.95
2018-04-08T10:20:04.712Z,26.25
2018-04-08T10:21:04.906Z,26.52
2018-04-08T10:22:05.109Z,26.19
2018-04-08T10:23:05.285Z,26.18
2018-04-08T10:24:05.432Z,25.77
2018-04-08T10:25:05.644Z,26.18
2018-04-08T10:26:05.889Z,26.62
2018-04-08T10:27:06.016Z,26.78
2018-04-08T10:28:06.194Z,25.08
2018-04-08T10:29:06.460Z,25.69
2018-04-08T10:30:06.572Z,25.85
2018-04-08T10:31:06.847Z,25.99
2018-04-08T10:32:06.966Z,26.10
2018-04-08T10:33:07.122Z,26.25
2018-04-08T10:34:07.443Z,26.22
2018-04-08T10:35:07.531Z,26.18
2018-04-08T10:36:07.666Z,26.22
2018-04-08T10:37:07.869Z,26.71
2018-04-08T10:38:08.116Z,26.63
2018-04-08T10:39:08.287Z,26.88
2018-04-08T10:40:08.489Z,26.73
2018-04-08T10:41:08.635Z,26.75
2018-04-08T10:42:08.825Z,27.15
2018-04-08T10:43:09.012Z,27.29
2018-04-08T10:44:09.221Z,27.22
2018-04-08T10:45:09.410Z,27.44
2018-04-08T10:46:09.589Z,26.93
2018-04-08T10:47:09.773Z,26.44
2018-04-08T10:48:09.950Z,25.77
2018-04-08T10:49:10.166Z,25.62
2018-04-08T10:50:10.318Z,25.83
2018-04-08T10:51:10.528Z,26.02
2018-04-08T10:52:10.694Z,25.60
2018-04-08T10:53:10.886Z,25.83
2018-04-08T10:54:11.075Z,26.00
2018-04-08T10:55:11.308Z,26.19
2018-04-08T10:56:11.438Z,26.51
2018-04-08T10:57:11.630Z,26.59
2018-04-08T10:58:11.890Z,26.47
2018-04-08T10:59:12.008Z,26.40
2018-04-08T11:00:12.209Z,26.25
2018-04-08T11:01:12.392Z,25.70
2018-04-08T11:02:12.560Z,25.73
2018-04-08T11:03:12.769Z,25.48
2018-04-08T11:04:13.017Z,25.81
2018-04-08T11:05:13.226Z,25.73
2018-04-08T11:06:13.485Z,25.65
2018-04-08T11:07:13.578Z,25.77
2018-04-08T11:08:13.804Z,25.83
2018-04-08T11:09:13.985Z,25.73
2018-04-08T11:10:14.197Z,25.80
2018-04-08T11:11:14.299Z,25.65
2018-04-08T11:12:14.503Z,25.47
2018-04-08T11:13:14.712Z,25.41
2018-04-08T11:14:14.836Z,25.48
2018-04-08T11:15:15.027Z,25.63
2018-04-08T11:16:15.245Z,25.53
2018-04-08T11:17:15.392Z,25.32
2018-04-08T11:18:15.554Z,25.22
2018-04-08T11:19:15.750Z,25.44
2018-04-08T11:20:15.920Z,25.66
2018-04-08T11:21:16.150Z,25.87
2018-04-08T11:22:16.335Z,25.90
2018-04-08T11:23:17.096Z,25.63
2018-04-08T11:24:16.688Z,25.58
2018-04-08T11:25:16.914Z,25.58
2018-04-08T11:26:17.057Z,25.72
2018-04-08T11:27:17.469Z,25.75
2018-04-08T11:28:17.400Z,25.65
2018-04-08T11:29:17.557Z,25.59
2018-04-08T11:30:17.745Z,25.68
2018-04-08T11:31:18.026Z,25.48
2018-04-08T11:32:18.244Z,25.26
2018-04-08T11:33:18.373Z,25.17
2018-04-08T11:34:18.590Z,25.26
2018-04-08T11:35:18.733Z,25.22
2018-04-08T11:36:18.935Z,24.73
2018-04-08T11:37:19.118Z,24.77
2018-04-08T11:38:19.398Z,24.58
2018-04-08T11:39:19.478Z,24.50
2018-04-08T11:40:19.636Z,24.60
2018-04-08T11:41:20.120Z,24.57
2018-04-08T11:42:20.013Z,24.73
2018-04-08T11:43:20.230Z,24.96
2018-04-08T11:44:20.362Z,24.76
2018-04-08T11:45:20.564Z,24.70
2018-04-08T11:46:20.783Z,25.04
2018-04-08T11:47:20.937Z,25.08
2018-04-08T11:48:21.149Z,25.28
2018-04-08T11:49:21.295Z,25.22
2018-04-08T11:50:21.506Z,25.04
2018-04-08T11:51:21.686Z,25.21
2018-04-08T11:52:21.844Z,25.44
2018-04-08T11:53:22.020Z,25.68
2018-04-08T11:54:22.189Z,25.78
2018-04-08T11:55:22.395Z,25.65
2018-04-08T11:56:22.609Z,25.73
2018-04-08T11:57:22.794Z,25.87
2018-04-08T11:58:22.999Z,25.73
2018-04-08T11:59:23.172Z,25.68
2018-04-08T12:00:23.331Z,25.75
2018-04-08T12:01:23.519Z,25.87
2018-04-08T12:02:23.811Z,25.81
2018-04-08T12:03:23.872Z,25.78
2018-04-08T12:04:24.099Z,25.55
2018-04-08T12:05:24.258Z,24.88
2018-04-08T12:06:24.492Z,25.06
2018-04-08T12:07:24.614Z,25.13
2018-04-08T12:08:24.834Z,25.17
2018-04-08T12:09:25.010Z,24.66
2018-04-08T12:10:25.169Z,24.86
2018-04-08T12:11:25.448Z,25.18
2018-04-08T12:12:25.597Z,25.36
2018-04-08T12:13:25.699Z,25.36
2018-04-08T12:14:25.900Z,25.22
2018-04-08T12:15:26.054Z,25.36
2018-04-08T12:16:26.231Z,25.26
2018-04-08T12:17:26.481Z,24.88
2018-04-08T12:18:26.611Z,24.91
2018-04-08T12:19:26.813Z,24.66
2018-04-08T12:20:27.005Z,24.86
2018-04-08T12:21:27.187Z,25.14
2018-04-08T12:22:27.315Z,24.76
2018-04-08T12:23:27.572Z,24.76
2018-04-08T12:24:27.688Z,24.70
2018-04-08T12:25:27.841Z,24.66
2018-04-08T12:26:28.034Z,24.63
2018-04-08T12:27:28.221Z,23.83
2018-04-08T12:28:28.448Z,23.61
2018-04-08T12:29:28.648Z,23.66
2018-04-08T12:30:28.827Z,23.81
2018-04-08T12:31:28.960Z,24.03
2018-04-08T12:32:29.152Z,24.42
2018-04-08T12:33:29.600Z,24.63
2018-04-08T12:34:29.590Z,24.88
2018-04-08T12:35:29.731Z,24.81
2018-04-08T12:36:29.909Z,24.63
2018-04-08T12:37:30.136Z,24.76
2018-04-08T12:38:30.285Z,24.60
2018-04-08T12:39:30.531Z,24.65
2018-04-08T12:40:30.726Z,24.69
2018-04-08T12:41:30.881Z,24.96
2018-04-08T12:42:31.095Z,25.03
2018-04-08T12:43:31.664Z,25.01
2018-04-08T12:44:31.513Z,25.06
2018-04-08T12:45:33.650Z,25.01
2018-04-08T12:46:32.028Z,24.99
2018-04-08T12:47:31.952Z,25.17
2018-04-08T12:48:32.094Z,25.23
2018-04-08T12:49:32.283Z,25.13
2018-04-08T12:50:32.491Z,24.73
2018-04-08T12:51:32.717Z,24.68
2018-04-08T12:52:32.785Z,24.29
2018-04-08T12:53:32.942Z,24.40
2018-04-08T12:54:33.146Z,24.53
2018-04-08T12:55:33.351Z,24.42
2018-04-08T12:56:33.514Z,24.33
2018-04-08T12:57:33.692Z,24.20
2018-04-08T12:58:33.863Z,24.17
2018-04-08T12:59:34.053Z,24.05
2018-04-08T13:00:34.297Z,24.20
2018-04-08T13:01:34.428Z,24.51
2018-04-08T13:02:34.590Z,24.57
2018-04-08T13:03:34.882Z,24.39
2018-04-08T13:04:34.930Z,23.96
2018-04-08T13:05:35.153Z,24.20
2018-04-08T13:06:35.535Z,24.45
2018-04-08T13:07:35.474Z,24.54
2018-04-08T13:08:35.661Z,24.76
2018-04-08T13:09:35.859Z,25.10
2018-04-08T13:10:36.034Z,25.17